Time;durP1;ratioP1;P1;durP2;ratioP2;P2;SDS_P1;SDS_P2;PMS_P1;PMS_P2;Temp;Humidity;BMP_temperature;BMP_pressure;BME280_temperature;BME280_humidity;BME280_pressure;Samples;Min_cycle;Max_cycle;Signal;HPM_P1;HPM_P2
2023/06/04 00:02:17;;;;;;;1.80;0.85;;;;;;;16.33;71.52;100827.06;4978821;28;20039;-78
2023/06/04 00:04:43;;;;;;;2.88;0.82;;;;;;;16.35;72.13;100843.78;4973420;28;20062;-79
2023/06/04 00:07:08;;;;;;;1.63;0.90;;;;;;;16.56;72.35;100911.44;4980907;28;20055;-79
2023/06/04 00:09:34;;;;;;;1.75;0.95;;;;;;;16.72;73.54;100918.22;4979917;28;20033;-79
2023/06/04 00:11:59;;;;;;;2.17;1.25;;;;;;;16.59;75.28;100933.44;4982629;28;20556;-80
2023/06/04 00:14:28;;;;;;;2.63;0.90;;;;;;;16.02;74.86;100827.56;4981625;28;20124;-78
2023/06/04 00:16:54;;;;;;;2.08;1.15;;;;;;;16.16;75.58;100853.81;4982681;28;20047;-80
2023/06/04 00:19:19;;;;;;;1.38;0.75;;;;;;;15.94;76.40;100830.31;4981541;28;20513;-82
2023/06/04 00:21:45;;;;;;;3.38;0.80;;;;;;;16.88;76.26;100971.88;4980379;28;20536;-80
2023/06/04 00:24:12;;;;;;;1.20;0.55;;;;;;;15.98;76.19;100818.78;4985672;28;20041;-82
2023/06/04 00:26:37;;;;;;;1.48;0.68;;;;;;;16.69;75.95;100958.00;4972518;28;20398;-78
2023/06/04 00:29:03;;;;;;;1.65;0.95;;;;;;;16.80;75.97;100977.28;4978734;28;20052;-78
2023/06/04 00:31:28;;;;;;;1.95;0.85;;;;;;;16.17;77.85;100885.53;4982712;28;20498;-80
2023/06/04 00:33:54;;;;;;;1.50;0.57;;;;;;;16.06;79.03;100870.72;4980792;28;20714;-80
2023/06/04 00:36:19;;;;;;;2.35;0.90;;;;;;;16.54;80.33;100982.97;4965884;28;20475;-79
2023/06/04 00:38:46;;;;;;;2.42;1.15;;;;;;;16.49;79.55;100979.53;4976587;28;20833;-79
2023/06/04 00:41:12;;;;;;;0.80;0.60;;;;;;;16.41;80.68;100966.41;4979202;28;20133;-79
2023/06/04 00:43:37;;;;;;;2.05;1.17;;;;;;;15.93;80.85;100878.00;4978980;28;20050;-77
2023/06/04 00:46:04;;;;;;;2.38;1.23;;;;;;;15.89;80.54;100855.09;4987931;28;20502;-77
2023/06/04 00:48:30;;;;;;;3.85;1.08;;;;;;;16.35;80.63;100965.63;4977691;28;20117;-78
2023/06/04 00:50:57;;;;;;;1.85;0.77;;;;;;;15.80;81.54;100870.22;4985057;28;20550;-78
2023/06/04 00:53:24;;;;;;;2.13;1.15;;;;;;;16.54;81.21;100961.78;4973598;28;20043;-78
2023/06/04 00:55:52;;;;;;;1.35;0.68;;;;;;;16.70;80.83;100974.81;4983540;28;20046;-77
2023/06/04 00:58:17;;;;;;;2.28;1.00;;;;;;;16.71;79.04;100969.47;4983843;28;20054;-77
2023/06/04 01:00:45;;;;;;;1.02;0.75;;;;;;;16.72;77.90;100986.25;4962452;28;20048;-75
2023/06/04 01:03:18;;;;;;;2.33;0.98;;;;;;;16.10;78.00;100875.09;4985683;28;20125;-78
2023/06/04 01:05:55;;;;;;;1.75;0.75;;;;;;;16.31;78.81;100906.53;4979357;28;20101;-82
2023/06/04 01:08:22;;;;;;;1.88;1.05;;;;;;;16.01;78.52;100871.69;4979499;28;20050;-77
2023/06/04 01:10:58;;;;;;;2.40;0.98;;;;;;;16.46;79.06;100959.25;4969711;28;20510;-75
2023/06/04 01:13:24;;;;;;;1.10;0.47;;;;;;;15.79;79.60;100871.09;4965607;28;20557;-76
2023/06/04 01:15:50;;;;;;;6.57;2.05;;;;;;;15.63;78.88;100846.59;4977260;28;20058;-77
2023/06/04 01:18:27;;;;;;;1.70;0.90;;;;;;;15.84;78.71;100876.34;4982142;28;20088;-77
2023/06/04 01:21:09;;;;;;;1.10;0.77;;;;;;;16.66;78.67;100974.84;4977479;28;20051;-79
2023/06/04 01:24:00;;;;;;;0.93;0.65;;;;;;;16.46;76.42;100976.94;4974840;28;20055;-80
2023/06/04 01:26:27;;;;;;;3.10;1.13;;;;;;;15.69;76.36;100836.84;4981463;28;20046;-81
2023/06/04 01:28:55;;;;;;;2.08;0.95;;;;;;;16.23;74.92;100925.19;4991589;28;20200;-79
2023/06/04 01:31:24;;;;;;;1.38;0.68;;;;;;;16.23;75.09;100941.06;4985452;28;20050;-81
2023/06/04 01:33:57;;;;;;;1.85;0.70;;;;;;;16.54;73.51;100966.22;4982814;28;20125;-78
2023/06/04 01:36:23;;;;;;;1.40;0.90;;;;;;;16.46;73.21;100969.00;4982931;28;20034;-77
2023/06/04 01:38:49;;;;;;;2.78;1.40;;;;;;;16.45;72.55;100968.09;5002304;28;20061;-78
2023/06/04 01:41:15;;;;;;;1.58;0.70;;;;;;;15.33;71.01;100791.47;4973550;28;20054;-82
2023/06/04 01:43:40;;;;;;;2.83;1.05;;;;;;;16.39;70.40;100952.31;4977727;28;20478;-78
2023/06/04 01:46:05;;;;;;;1.27;0.70;;;;;;;15.64;69.74;100842.22;4978605;28;20066;-82
2023/06/04 01:48:34;;;;;;;1.05;0.65;;;;;;;16.56;69.24;100983.84;4978046;28;20045;-81
2023/06/04 01:51:01;;;;;;;1.83;1.10;;;;;;;16.53;68.39;100975.94;4979805;28;20450;-78
2023/06/04 01:53:26;;;;;;;0.30;0.30;;;;;;;16.35;67.69;101000.94;4978962;28;20097;-81
2023/06/04 01:55:52;;;;;;;1.70;0.68;;;;;;;16.04;68.41;100916.63;4984215;28;20698;-78
2023/06/04 01:58:22;;;;;;;1.20;0.50;;;;;;;15.95;68.00;100879.72;4971120;28;20058;-81
2023/06/04 02:00:49;;;;;;;1.27;0.70;;;;;;;15.88;66.92;100880.69;4983888;28;20501;-80
2023/06/04 02:03:15;;;;;;;3.40;0.73;;;;;;;15.84;66.71;100897.50;4972241;28;20034;-81
2023/06/04 02:05:40;;;;;;;1.20;0.60;;;;;;;16.35;66.57;100986.81;4982317;28;20038;-83
2023/06/04 02:08:06;;;;;;;2.13;0.93;;;;;;;16.24;67.09;100992.25;4980010;28;20410;-78
2023/06/04 02:10:32;;;;;;;3.90;1.00;;;;;;;16.31;67.61;100998.34;4979168;28;20082;-78
2023/06/04 02:12:59;;;;;;;1.30;0.57;;;;;;;16.25;66.61;101008.13;4979422;28;20046;-78
2023/06/04 02:15:27;;;;;;;1.77;0.95;;;;;;;15.54;67.56;100861.72;4983221;28;20058;-80
2023/06/04 02:17:58;;;;;;;3.25;0.93;;;;;;;16.32;66.38;100998.34;4960149;28;20109;-82
2023/06/04 02:20:25;;;;;;;1.20;0.52;;;;;;;16.12;66.48;101001.25;4973860;28;20050;-80
2023/06/04 02:22:51;;;;;;;1.48;0.80;;;;;;;16.15;65.18;101008.25;4979748;28;20153;-78
2023/06/04 02:25:16;;;;;;;1.60;0.90;;;;;;;15.88;65.81;100957.44;4982974;28;20079;-80
2023/06/04 02:27:42;;;;;;;3.72;0.70;;;;;;;15.40;65.50;100912.16;4982214;28;20120;-78
2023/06/04 02:30:08;;;;;;;2.25;0.90;;;;;;;15.38;65.49;100903.34;4979685;28;20164;-82
2023/06/04 02:32:35;;;;;;;0.40;0.35;;;;;;;15.90;65.64;101005.09;4976931;28;20720;-79
2023/06/04 02:35:02;;;;;;;1.00;0.57;;;;;;;16.17;65.75;101023.22;4983549;28;20154;-77
2023/06/04 02:37:27;;;;;;;1.33;0.80;;;;;;;16.14;65.40;101030.34;4981125;28;20589;-79
2023/06/04 02:39:53;;;;;;;1.52;0.88;;;;;;;16.04;65.78;101034.91;4981504;28;20069;-78
2023/06/04 02:42:18;;;;;;;5.65;1.05;;;;;;;15.48;65.79;100906.78;4981080;28;20042;-79
2023/06/04 02:44:44;;;;;;;1.33;0.68;;;;;;;15.82;65.15;100953.09;4980040;28;20053;-80
2023/06/04 02:47:09;;;;;;;1.55;0.73;;;;;;;15.34;64.04;100905.16;4977138;28;20051;-77
2023/06/04 02:49:35;;;;;;;5.88;0.75;;;;;;;15.97;64.64;101017.34;4979761;28;20057;-80
2023/06/04 02:52:00;;;;;;;1.33;0.70;;;;;;;15.91;65.00;101022.69;4981361;28;20050;-78
2023/06/04 02:54:25;;;;;;;1.13;0.65;;;;;;;15.78;65.94;101016.66;4980498;28;20069;-80
2023/06/04 02:56:52;;;;;;;3.65;1.10;;;;;;;15.83;65.71;101026.31;5004198;28;20054;-79
2023/06/04 02:59:17;;;;;;;2.22;0.95;;;;;;;15.15;66.62;100930.94;4983092;28;20157;-80
2023/06/04 03:01:43;;;;;;;1.27;0.50;;;;;;;15.81;66.51;101037.81;4979733;28;20161;-79
2023/06/04 03:04:09;;;;;;;1.58;0.68;;;;;;;15.24;65.37;100971.38;4975893;28;20144;-80
2023/06/04 03:06:38;;;;;;;1.05;0.50;;;;;;;15.72;66.30;101057.31;4976796;28;20082;-80
2023/06/04 03:09:04;;;;;;;1.10;0.57;;;;;;;15.64;66.24;101045.91;4967468;28;20134;-78
2023/06/04 03:11:29;;;;;;;1.98;0.90;;;;;;;15.89;65.37;101062.41;4962312;28;20470;-78
2023/06/04 03:13:55;;;;;;;5.90;1.38;;;;;;;15.31;65.57;100959.84;4973334;28;20428;-80
2023/06/04 03:16:21;;;;;;;2.72;0.70;;;;;;;15.48;64.30;101015.22;4985928;28;20054;-79
2023/06/04 03:18:46;;;;;;;2.15;1.05;;;;;;;15.23;64.98;100962.56;4984250;28;20063;-79
2023/06/04 03:21:13;;;;;;;1.25;0.80;;;;;;;14.56;65.81;100879.53;4987440;28;20125;-78
2023/06/04 03:23:39;;;;;;;2.00;1.10;;;;;;;15.36;65.68;101048.84;4998979;28;20122;-78
2023/06/04 03:26:05;;;;;;;1.40;0.85;;;;;;;15.18;66.63;101022.56;4978950;28;20154;-77
2023/06/04 03:28:32;;;;;;;1.15;0.63;;;;;;;15.59;66.60;101082.09;4975265;28;20070;-79
2023/06/04 03:30:58;;;;;;;1.17;0.60;;;;;;;15.55;67.70;101085.69;4985713;28;20046;-79
2023/06/04 03:33:24;;;;;;;1.10;0.55;;;;;;;14.74;67.14;100968.31;4985423;28;20506;-78
2023/06/04 03:35:57;;;;;;;3.67;1.17;;;;;;;14.73;67.36;100963.94;4987792;28;20077;-80
2023/06/04 03:38:23;;;;;;;2.28;0.82;;;;;;;14.84;66.87;100954.13;4985046;28;20046;-80
2023/06/04 03:40:49;;;;;;;1.98;0.90;;;;;;;14.81;67.78;100961.22;4983711;28;20490;-78
2023/06/04 03:43:14;;;;;;;4.32;0.85;;;;;;;15.54;67.61;101084.78;4985112;28;20062;-78
2023/06/04 03:45:40;;;;;;;3.90;2.70;;;;;;;15.38;69.88;101080.53;4973282;28;20515;-79
2023/06/04 03:48:05;;;;;;;2.40;0.88;;;;;;;14.61;70.92;100962.28;4984816;28;20027;-80
2023/06/04 03:50:31;;;;;;;1.80;0.70;;;;;;;15.12;71.81;101039.34;4981552;28;20046;-78
2023/06/04 03:52:56;;;;;;;2.00;1.02;;;;;;;14.92;72.51;100983.16;4980918;28;20047;-79
2023/06/04 03:55:22;;;;;;;2.03;0.68;;;;;;;15.32;73.50;101088.53;4984534;28;20100;-79
2023/06/04 03:57:48;;;;;;;1.60;0.70;;;;;;;15.11;74.75;101057.88;4980273;28;20054;-77
2023/06/04 04:00:14;;;;;;;2.20;0.85;;;;;;;15.28;73.78;101069.16;4987523;28;20075;-78
2023/06/04 04:02:40;;;;;;;2.10;0.70;;;;;;;14.64;73.75;100956.94;4976923;28;20402;-78
2023/06/04 04:05:07;;;;;;;2.83;0.80;;;;;;;14.64;76.20;100993.94;4977894;28;20077;-78
2023/06/04 04:07:32;;;;;;;1.15;0.60;;;;;;;15.44;75.55;101100.78;4980384;28;20046;-77
2023/06/04 04:09:57;;;;;;;1.13;0.50;;;;;;;15.03;74.08;101025.31;4982363;28;20101;-80
2023/06/04 04:12:23;;;;;;;1.80;0.55;;;;;;;15.50;74.03;101127.16;4985539;28;20061;-76
2023/06/04 04:14:48;;;;;;;2.00;0.75;;;;;;;15.10;75.58;101070.22;4979221;28;20081;-77
2023/06/04 04:17:14;;;;;;;2.38;0.80;;;;;;;15.51;75.94;101102.47;4982611;28;20104;-78
2023/06/04 04:19:40;;;;;;;1.90;0.82;;;;;;;15.30;74.15;101082.38;4983884;28;20070;-79
2023/06/04 04:22:06;;;;;;;1.08;0.60;;;;;;;14.61;76.28;100995.69;4982940;28;20109;-79
2023/06/04 04:24:34;;;;;;;1.33;0.77;;;;;;;15.15;79.55;101113.34;4982976;28;20032;-78
2023/06/04 04:26:59;;;;;;;2.53;0.75;;;;;;;14.53;79.02;100996.59;4984556;28;20052;-79
2023/06/04 04:29:27;;;;;;;1.40;0.70;;;;;;;15.33;79.38;101114.94;4982185;28;20065;-77
2023/06/04 04:31:57;;;;;;;1.65;0.60;;;;;;;15.04;79.51;101072.03;4981812;28;20046;-79
2023/06/04 04:34:25;;;;;;;1.10;0.55;;;;;;;14.76;78.74;100982.41;4982511;28;20057;-79
2023/06/04 04:36:56;;;;;;;2.45;1.10;;;;;;;15.39;78.30;101106.97;4986333;28;20050;-77
2023/06/04 04:39:25;;;;;;;2.10;0.82;;;;;;;15.52;77.46;101117.44;4982923;28;20544;-77
2023/06/04 04:41:51;;;;;;;2.47;0.75;;;;;;;15.25;74.80;101076.25;4980658;28;20077;-78
2023/06/04 04:44:17;;;;;;;2.40;0.90;;;;;;;14.59;75.65;101029.19;4975048;28;20058;-80
2023/06/04 04:46:42;;;;;;;1.10;0.52;;;;;;;15.42;75.51;101124.56;4981071;28;20086;-79
2023/06/04 04:49:10;;;;;;;1.27;0.63;;;;;;;15.24;76.00;101112.41;4983023;28;20158;-81
2023/06/04 04:51:36;;;;;;;3.70;0.85;;;;;;;15.15;76.41;101131.84;4979649;28;20038;-79
2023/06/04 04:54:02;;;;;;;1.42;0.50;;;;;;;15.55;75.66;101117.44;4976737;28;20100;-79
2023/06/04 04:56:28;;;;;;;1.85;0.88;;;;;;;15.10;75.48;101020.00;4980064;28;20046;-79
2023/06/04 04:58:55;;;;;;;2.50;0.73;;;;;;;15.36;77.77;101122.88;4982537;28;20050;-77
2023/06/04 05:01:21;;;;;;;1.50;0.73;;;;;;;15.25;77.71;101131.78;4982260;28;20066;-77
2023/06/04 05:03:48;;;;;;;2.53;0.63;;;;;;;14.82;77.09;101022.00;4976743;28;20030;-79
2023/06/04 05:06:14;;;;;;;1.88;0.70;;;;;;;15.49;76.57;101141.28;5012802;28;20034;-79
2023/06/04 05:08:39;;;;;;;2.47;1.15;;;;;;;14.60;77.24;101012.47;4962269;28;20553;-78
2023/06/04 05:11:05;;;;;;;4.22;0.57;;;;;;;15.67;76.52;101112.00;4977675;28;20050;-78
2023/06/04 05:13:30;;;;;;;1.13;0.60;;;;;;;15.44;76.93;101124.56;4983853;28;20046;-78
2023/06/04 05:15:56;;;;;;;2.97;1.42;;;;;;;15.30;77.42;101101.75;4980997;28;20114;-82
2023/06/04 05:18:28;;;;;;;1.95;0.73;;;;;;;14.52;77.67;100964.94;4985040;28;20054;-79
2023/06/04 05:20:55;;;;;;;0.82;0.52;;;;;;;14.56;76.29;100940.28;4984042;28;20501;-81
2023/06/04 05:23:24;;;;;;;3.95;1.92;;;;;;;15.48;76.19;101070.78;4981758;28;20050;-80
2023/06/04 05:25:50;;;;;;;3.60;0.60;;;;;;;16.08;74.78;101147.78;4980405;28;20435;-80
2023/06/04 05:28:15;;;;;;;2.55;1.30;;;;;;;15.83;76.21;101145.41;4982273;28;20035;-80
2023/06/04 05:30:41;;;;;;;3.63;1.05;;;;;;;15.80;74.87;101144.53;4973627;28;20045;-79
2023/06/04 05:33:17;;;;;;;2.22;1.13;;;;;;;16.19;75.29;101160.91;4982001;28;20417;-79
2023/06/04 05:35:48;;;;;;;1.05;0.70;;;;;;;16.30;73.29;101147.56;4981138;28;20085;-80
2023/06/04 05:38:18;;;;;;;0.88;0.60;;;;;;;16.57;72.82;101155.16;4984238;28;20046;-80
2023/06/04 05:40:45;;;;;;;2.00;0.80;;;;;;;16.40;71.19;101122.72;4978209;28;20073;-81
2023/06/04 05:43:12;;;;;;;2.30;0.93;;;;;;;16.46;72.47;101160.59;4979814;28;20503;-78
2023/06/04 05:45:37;;;;;;;1.42;0.73;;;;;;;16.41;71.56;101164.19;4977878;28;20022;-77
2023/06/04 05:48:04;;;;;;;2.15;1.00;;;;;;;16.99;70.54;101152.84;4977624;28;20811;-79
2023/06/04 05:50:30;;;;;;;1.42;1.17;;;;;;;16.47;69.32;101076.69;4981888;28;20188;-81
2023/06/04 05:52:58;;;;;;;2.42;0.93;;;;;;;16.41;70.16;101059.13;4983385;28;20101;-78
2023/06/04 05:55:24;;;;;;;2.45;1.52;;;;;;;16.84;65.75;101082.38;4980663;28;20047;-78
2023/06/04 05:57:53;;;;;;;1.55;0.77;;;;;;;17.76;63.39;101063.13;4982790;28;20058;-78
2023/06/04 06:00:18;;;;;;;2.60;0.85;;;;;;;18.58;61.54;101096.91;4978662;28;20337;-77
2023/06/04 06:02:45;;;;;;;1.35;0.90;;;;;;;19.19;60.23;101165.53;4981107;28;20714;-80
2023/06/04 06:05:10;;;;;;;2.90;1.30;;;;;;;18.39;60.73;101157.53;4988764;28;20054;-78
2023/06/04 06:07:36;;;;;;;1.98;0.80;;;;;;;18.21;61.18;101064.00;4985841;28;20782;-79
2023/06/04 06:10:02;;;;;;;2.90;1.15;;;;;;;18.62;60.33;101091.47;4979370;28;20054;-78
2023/06/04 06:12:28;;;;;;;1.17;0.82;;;;;;;19.22;57.94;101039.53;4982765;28;20085;-77
2023/06/04 06:14:53;;;;;;;0.98;0.57;;;;;;;19.08;56.77;101031.91;4979678;28;20038;-80
2023/06/04 06:17:19;;;;;;;2.60;0.80;;;;;;;19.37;58.29;100951.31;4977397;28;20154;-80
2023/06/04 06:19:44;;;;;;;1.15;0.70;;;;;;;20.20;56.63;101153.22;4987775;28;20050;-80
2023/06/04 06:22:10;;;;;;;1.98;1.13;;;;;;;19.09;57.67;101163.13;4982093;28;20469;-80
2023/06/04 06:24:36;;;;;;;1.27;0.52;;;;;;;18.09;59.94;101057.16;4985888;28;20034;-78
2023/06/04 06:27:02;;;;;;;1.50;1.02;;;;;;;18.49;59.43;101051.00;4979120;28;20101;-78
2023/06/04 06:29:29;;;;;;;1.48;0.77;;;;;;;19.32;59.15;101182.09;4978522;28;20050;-78
2023/06/04 06:31:55;;;;;;;2.42;0.47;;;;;;;17.62;60.46;100928.03;4960172;28;20443;-80
2023/06/04 06:34:21;;;;;;;1.25;0.45;;;;;;;18.97;60.28;101154.53;4976777;28;20047;-78
2023/06/04 06:36:47;;;;;;;4.00;1.20;;;;;;;18.51;59.60;101122.72;4978504;28;20050;-83
2023/06/04 06:39:12;;;;;;;2.08;1.05;;;;;;;19.40;61.27;101195.22;4981192;28;20089;-83
2023/06/04 06:41:38;;;;;;;1.75;1.13;;;;;;;19.74;58.91;101117.19;4983169;28;20134;-78
2023/06/04 06:44:05;;;;;;;0.82;0.40;;;;;;;19.37;60.67;101147.38;4983251;28;20528;-80
2023/06/04 06:46:31;;;;;;;1.83;1.08;;;;;;;19.08;60.27;101188.88;4982181;28;20077;-79
2023/06/04 06:48:57;;;;;;;2.25;0.68;;;;;;;19.37;60.21;101184.66;4982157;28;20046;-78
2023/06/04 06:51:25;;;;;;;2.63;0.70;;;;;;;18.67;60.64;101145.41;4981228;28;20111;-80
2023/06/04 06:53:51;;;;;;;2.30;0.88;;;;;;;19.98;59.86;101153.81;4964188;28;20447;-78
2023/06/04 06:56:18;;;;;;;1.88;0.68;;;;;;;20.15;59.07;101168.47;4974478;28;20065;-81
2023/06/04 06:58:46;;;;;;;1.55;0.68;;;;;;;19.32;60.26;101158.16;4985308;28;20061;-80
2023/06/04 07:01:15;;;;;;;0.75;0.60;;;;;;;19.64;59.85;101159.09;4979631;28;20043;-80
2023/06/04 07:03:40;;;;;;;1.30;0.47;;;;;;;18.43;61.63;101074.19;4975422;28;20104;-78
2023/06/04 07:06:06;;;;;;;2.00;0.90;;;;;;;18.96;61.27;101155.44;5008037;28;20038;-80
2023/06/04 07:08:33;;;;;;;1.65;0.50;;;;;;;18.51;64.29;101017.28;4979808;28;20089;-79
2023/06/04 07:11:03;;;;;;;1.08;0.55;;;;;;;18.99;60.98;101098.66;4979538;28;20065;-82
2023/06/04 07:13:31;;;;;;;1.73;0.60;;;;;;;18.38;63.46;101076.94;4977706;28;20176;-83
2023/06/04 07:15:57;;;;;;;1.98;0.52;;;;;;;18.72;62.90;101090.34;4976553;28;20061;-79
2023/06/04 07:18:22;;;;;;;1.00;0.45;;;;;;;19.08;64.00;101132.09;4976536;28;20035;-80
2023/06/04 07:20:49;;;;;;;1.58;0.60;;;;;;;19.16;62.04;101181.56;4976900;28;20333;-80
2023/06/04 07:23:15;;;;;;;1.90;0.85;;;;;;;18.84;61.20;101064.41;4975397;28;20137;-80
2023/06/04 07:25:42;;;;;;;2.03;0.60;;;;;;;19.60;61.68;101189.41;4977512;28;20157;-80
2023/06/04 07:28:07;;;;;;;1.77;1.00;;;;;;;19.67;61.77;101177.69;4976106;28;20042;-80
2023/06/04 07:30:33;;;;;;;3.70;0.65;;;;;;;19.71;60.71;101170.53;4977852;28;20078;-81
2023/06/04 07:32:58;;;;;;;3.03;0.75;;;;;;;19.16;59.80;101170.06;4979222;28;20502;-82
2023/06/04 07:35:24;;;;;;;3.35;1.13;;;;;;;19.47;58.18;101124.94;4986081;28;20157;-81
2023/06/04 07:37:50;;;;;;;2.08;0.80;;;;;;;19.88;57.78;101192.28;4987312;28;20065;-79
2023/06/04 07:40:16;;;;;;;1.00;0.60;;;;;;;18.78;55.18;101100.03;4986572;28;20383;-79
2023/06/04 07:42:43;;;;;;;1.63;0.60;;;;;;;18.91;54.52;101100.59;4985322;28;20034;-80
2023/06/04 07:45:09;;;;;;;1.02;0.80;;;;;;;19.17;53.92;101089.31;4986536;28;20038;-79
2023/06/04 07:47:36;;;;;;;2.33;0.88;;;;;;;19.66;53.90;101098.72;4987787;28;20138;-81
2023/06/04 07:50:02;;;;;;;1.67;0.75;;;;;;;19.32;53.50;101128.88;4985380;28;20046;-79
2023/06/04 07:52:28;;;;;;;1.45;0.73;;;;;;;19.08;61.54;101106.41;4976143;28;20039;-71
2023/06/04 07:54:53;;;;;;;1.27;0.70;;;;;;;20.02;59.89;101203.44;4975869;28;20051;-79
2023/06/04 07:57:19;;;;;;;0.82;0.47;;;;;;;20.82;59.34;101189.69;4975183;28;20050;-78
2023/06/04 07:59:44;;;;;;;2.53;0.73;;;;;;;20.01;52.00;101102.22;4978986;28;20137;-82
2023/06/04 08:02:10;;;;;;;1.55;0.43;;;;;;;20.38;51.61;101059.41;4989638;28;20050;-80
2023/06/04 08:04:36;;;;;;;0.93;0.50;;;;;;;21.08;50.25;101090.13;4980072;28;20042;-78
2023/06/04 08:07:01;;;;;;;0.65;0.50;;;;;;;21.11;50.47;101203.94;4973197;28;20046;-76
2023/06/04 08:09:27;;;;;;;2.42;0.50;;;;;;;20.04;49.42;101088.81;4976827;28;20035;-80
2023/06/04 08:11:52;;;;;;;1.98;0.73;;;;;;;21.04;52.76;101149.88;4977331;28;20074;-76
2023/06/04 08:14:19;;;;;;;4.32;1.35;;;;;;;20.62;51.19;101168.94;4979498;28;20101;-78
2023/06/04 08:16:45;;;;;;;1.45;0.93;;;;;;;21.15;49.09;101129.03;4981977;28;20050;-75
2023/06/04 08:19:11;;;;;;;1.70;0.88;;;;;;;20.91;49.69;101060.44;4980134;28;20042;-79
2023/06/04 08:21:37;;;;;;;1.02;0.75;;;;;;;21.37;48.42;101137.22;4984965;28;20038;-78
2023/06/04 08:24:08;;;;;;;1.92;0.70;;;;;;;22.15;48.24;101197.81;4973784;28;20069;-78
2023/06/04 08:26:34;;;;;;;1.63;0.70;;;;;;;20.71;45.50;101103.78;4979358;28;20069;-75
2023/06/04 08:29:02;;;;;;;0.98;0.60;;;;;;;21.12;46.09;101070.44;4976478;28;20120;-79
2023/06/04 08:31:28;;;;;;;1.02;0.50;;;;;;;21.25;45.98;101108.25;4974277;28;20410;-76
2023/06/04 08:33:53;;;;;;;1.55;0.68;;;;;;;21.98;46.22;101160.97;4978133;28;20049;-77
2023/06/04 08:36:19;;;;;;;1.20;0.60;;;;;;;22.14;45.29;101150.63;4981091;28;20129;-74
2023/06/04 08:38:44;;;;;;;1.58;0.60;;;;;;;22.74;44.41;101097.56;4978285;28;20533;-80
2023/06/04 08:41:15;;;;;;;4.55;1.67;;;;;;;22.73;45.03;101186.78;4964032;28;20150;-80
2023/06/04 08:43:43;;;;;;;6.90;1.25;;;;;;;22.50;45.22;101163.56;4982265;28;20549;-76
2023/06/04 08:46:09;;;;;;;1.02;0.47;;;;;;;22.73;41.39;101179.66;4982091;28;20042;-79
2023/06/04 08:48:37;;;;;;;3.08;0.60;;;;;;;22.83;42.25;101113.28;4981375;28;20525;-77
2023/06/04 08:51:07;;;;;;;0.28;0.28;;;;;;;22.54;40.75;101146.50;4981118;28;20045;-81
2023/06/04 08:53:33;;;;;;;0.38;0.30;;;;;;;22.10;41.08;101106.19;4973939;28;20053;-80
2023/06/04 08:55:59;;;;;;;0.75;0.30;;;;;;;24.05;41.23;101202.03;4977395;28;20072;-81
2023/06/04 08:58:26;;;;;;;1.85;0.65;;;;;;;21.83;41.26;101193.59;4977023;28;20046;-80
2023/06/04 09:00:51;;;;;;;0.63;0.43;;;;;;;21.89;41.41;101163.97;4978039;28;20477;-77
2023/06/04 09:03:19;;;;;;;0.82;0.50;;;;;;;22.23;41.01;101200.25;4975312;28;20042;-76
2023/06/04 09:05:49;;;;;;;1.20;0.88;;;;;;;23.92;41.61;101178.44;4980368;28;20058;-80
2023/06/04 09:08:18;;;;;;;0.75;0.40;;;;;;;24.62;42.58;101152.94;4982143;28;20054;-81
2023/06/04 09:10:49;;;;;;;1.55;0.70;;;;;;;24.77;41.04;101078.91;4981981;28;20148;-82
2023/06/04 09:13:16;;;;;;;2.10;0.73;;;;;;;21.87;39.53;101115.09;4980552;28;20503;-80
2023/06/04 09:15:42;;;;;;;0.20;0.20;;;;;;;22.51;39.75;101210.81;4977925;28;20089;-86
2023/06/04 09:18:07;;;;;;;2.60;1.17;;;;;;;22.97;39.92;101171.59;4980390;28;21020;-80
2023/06/04 09:20:33;;;;;;;1.35;0.47;;;;;;;23.57;40.30;101120.97;4975567;28;20050;-80
2023/06/04 09:22:59;;;;;;;2.58;0.60;;;;;;;24.92;38.90;101141.72;4978240;28;20061;-79
2023/06/04 09:25:27;;;;;;;1.65;0.50;;;;;;;25.45;37.89;101165.09;4978844;28;20053;-81
2023/06/04 09:28:05;;;;;;;1.25;0.73;;;;;;;25.37;39.80;101075.06;4970965;28;20129;-83
2023/06/04 09:30:31;;;;;;;1.05;0.35;;;;;;;26.13;37.00;101193.03;4980366;28;20034;-82
2023/06/04 09:33:06;;;;;;;1.10;0.50;;;;;;;25.51;37.76;101101.22;4973987;28;20037;-81
2023/06/04 09:35:31;;;;;;;1.83;0.65;;;;;;;24.96;37.28;101170.16;4982289;28;20058;-79
2023/06/04 09:37:57;;;;;;;0.88;0.57;;;;;;;26.04;36.84;101197.97;4982612;28;20096;-78
2023/06/04 09:40:24;;;;;;;2.13;0.47;;;;;;;25.08;37.47;101190.19;4984258;28;20054;-79
2023/06/04 09:42:57;;;;;;;1.70;0.73;;;;;;;24.29;38.37;101186.66;4984208;28;20137;-81
2023/06/04 09:45:28;;;;;;;1.77;0.63;;;;;;;23.22;38.83;101198.28;4977170;28;20053;-80
2023/06/04 09:47:54;;;;;;;0.60;0.50;;;;;;;23.78;38.39;101125.41;4983316;28;20132;-78
2023/06/04 09:50:34;;;;;;;2.28;0.80;;;;;;;24.25;39.82;101116.19;4983321;28;20046;-81
2023/06/04 09:53:01;;;;;;;4.25;0.88;;;;;;;26.43;38.79;101187.84;4995133;28;20091;-77
2023/06/04 09:55:27;;;;;;;1.20;0.63;;;;;;;24.88;38.58;101176.81;4976578;28;20038;-79
2023/06/04 09:57:53;;;;;;;1.38;0.60;;;;;;;24.22;39.16;101095.75;4982437;28;20120;-78
2023/06/04 10:00:20;;;;;;;1.25;0.70;;;;;;;25.41;39.82;101123.19;4985375;28;20038;-81
2023/06/04 10:02:47;;;;;;;1.60;0.65;;;;;;;24.82;37.67;101199.47;4974378;28;20058;-79
2023/06/04 10:05:19;;;;;;;1.50;0.90;;;;;;;23.19;38.80;101187.72;4980052;28;20054;-80
2023/06/04 10:07:45;;;;;;;0.95;0.57;;;;;;;24.54;38.92;101190.03;4979851;28;20054;-78
2023/06/04 10:10:15;;;;;;;1.13;0.40;;;;;;;23.15;40.04;101152.13;4978075;28;20051;-78
2023/06/04 10:12:41;;;;;;;1.20;0.60;;;;;;;23.54;39.59;101161.28;4976956;28;20055;-78
2023/06/04 10:15:12;;;;;;;1.77;0.70;;;;;;;24.73;39.69;101147.09;4976737;28;20042;-78
2023/06/04 10:17:39;;;;;;;1.25;0.50;;;;;;;26.05;38.61;101182.69;4982947;28;20402;-78
2023/06/04 10:20:08;;;;;;;1.45;0.57;;;;;;;24.16;38.90;101181.88;4979745;28;20051;-81
2023/06/04 10:22:34;;;;;;;2.58;0.50;;;;;;;23.22;38.46;101076.91;4975108;28;20414;-75
2023/06/04 10:25:00;;;;;;;1.63;0.73;;;;;;;25.07;38.50;101185.72;4975751;28;20054;-73
2023/06/04 10:27:25;;;;;;;1.67;0.90;;;;;;;24.59;39.14;101042.22;5006855;28;20523;-73
2023/06/04 10:29:52;;;;;;;0.73;0.43;;;;;;;23.84;39.63;101185.94;5004152;28;20051;-73
2023/06/04 10:32:18;;;;;;;0.80;0.40;;;;;;;22.87;41.15;101173.75;4980056;28;20050;-73
2023/06/04 10:34:43;;;;;;;1.25;0.60;;;;;;;24.04;39.38;101170.78;4980657;28;20188;-74
2023/06/04 10:37:22;;;;;;;1.75;1.40;;;;;;;24.59;38.25;101139.69;4978759;28;20050;-73
2023/06/04 10:39:55;;;;;;;3.63;1.08;;;;;;;24.79;38.64;101159.34;4979593;28;20195;-74
2023/06/04 10:42:22;;;;;;;0.50;0.35;;;;;;;24.36;38.97;101158.63;4977208;28;20047;-74
2023/06/04 10:44:50;;;;;;;5.78;1.13;;;;;;;23.24;39.95;101191.06;4982378;28;20058;-75
2023/06/04 10:47:22;;;;;;;1.33;0.63;;;;;;;23.25;41.35;101175.84;4978621;28;20046;-73
2023/06/04 10:49:51;;;;;;;5.63;1.17;;;;;;;23.40;40.39;101124.34;4982709;28;20149;-71
2023/06/04 10:52:17;;;;;;;0.65;0.38;;;;;;;23.55;40.64;101142.47;4982868;28;20125;-71
2023/06/04 10:54:43;;;;;;;1.17;0.60;;;;;;;23.11;40.79;101163.06;4979759;28;20039;-74
2023/06/04 10:57:12;;;;;;;0.85;0.47;;;;;;;22.71;40.68;101065.56;4986819;28;20114;-73
2023/06/04 10:59:37;;;;;;;2.55;0.85;;;;;;;23.07;41.43;101049.84;4976330;28;20517;-72
2023/06/04 11:02:06;;;;;;;0.80;0.40;;;;;;;23.10;40.85;101166.66;4969130;28;20094;-73
2023/06/04 11:04:32;;;;;;;0.93;0.63;;;;;;;22.50;41.37;101073.53;4976990;28;20433;-74
2023/06/04 11:07:04;;;;;;;3.20;0.98;;;;;;;23.38;41.76;101179.78;4984843;28;20172;-73
2023/06/04 11:09:31;;;;;;;0.98;0.45;;;;;;;22.67;42.12;101125.50;5003598;28;20744;-74
2023/06/04 11:12:00;;;;;;;1.52;0.73;;;;;;;22.65;42.94;101154.13;4981688;28;20458;-73
2023/06/04 11:14:26;;;;;;;1.23;0.77;;;;;;;23.09;42.50;101171.16;4987616;28;20196;-73
2023/06/04 11:16:52;;;;;;;1.08;0.68;;;;;;;21.88;42.78;101120.34;4983922;28;20490;-73
2023/06/04 11:19:17;;;;;;;1.58;1.02;;;;;;;22.42;42.53;101163.00;4982251;28;20058;-73
2023/06/04 11:21:43;;;;;;;1.58;0.82;;;;;;;22.61;44.20;101150.69;4982140;28;20053;-72
2023/06/04 11:24:09;;;;;;;1.15;0.45;;;;;;;22.54;43.07;101138.47;4966059;28;20174;-73